Portada
METAR-TAF:

METAR-TAF

Aeroports :

Dyersburg, Tennessee, Estats Units d'Amèrica

latitud: 36-00N, longitud: 089-24W, altitud: 103 m

Observació

L'informe es va fer fa 14 minuts, a les 10:56 UTC
Vent 11 kt del Nord
Temperatura -7°C
Humitat 79%
Pressió 1034 hPa
Visibilitat: 14.5 km
Cel cobert a una alçada de 2400 ft
neu

METAR: KDYR 121056Z AUTO 01011KT 9SM -SN OVC024 M07/M10 A3053 RMK AO2 SNB04 SLP348 T10671100 FZRANO PNO $

Hora: 05:10 (11:10 UTC)


TAF: manca

Observacions i pronòstics meteorològics de més de 4000 aeroports (METAR i TAF).

Les estacions disponibles són els punts grocs i vermells al mapa.

Posi el ratolí al punt desitjat per veure el nom de l'estació.

Feu clic per veure les observacions i els pronòstics meteorològics.

Per canviar el mapa: feu clic els botons verds amb una creu de color negre per apropar; al botó verd amb un guió per allunyar la imatge; o en les fletxes verdes per a mapes adjacents.


METAR-TAF: